sensor_id;sensor_type;location;lat;lon;timestamp;temperature;humidity
5192;DHT22;2615;44.524;11.284;2023-07-08T00:01:12;23.80;61.60
5192;DHT22;2615;44.524;11.284;2023-07-08T00:03:41;23.80;61.80
5192;DHT22;2615;44.524;11.284;2023-07-08T00:06:13;23.80;61.90
5192;DHT22;2615;44.524;11.284;2023-07-08T00:08:42;23.80;62.10
5192;DHT22;2615;44.524;11.284;2023-07-08T00:11:12;23.80;62.20
5192;DHT22;2615;44.524;11.284;2023-07-08T00:13:40;23.70;62.30
5192;DHT22;2615;44.524;11.284;2023-07-08T00:16:10;23.70;62.40
5192;DHT22;2615;44.524;11.284;2023-07-08T00:18:39;23.70;62.50
5192;DHT22;2615;44.524;11.284;2023-07-08T00:21:09;23.70;62.50
5192;DHT22;2615;44.524;11.284;2023-07-08T00:23:44;23.70;62.70
5192;DHT22;2615;44.524;11.284;2023-07-08T00:26:18;23.70;62.80
5192;DHT22;2615;44.524;11.284;2023-07-08T00:28:47;23.70;62.90
5192;DHT22;2615;44.524;11.284;2023-07-08T00:31:15;23.70;63.00
5192;DHT22;2615;44.524;11.284;2023-07-08T00:33:43;23.70;63.00
5192;DHT22;2615;44.524;11.284;2023-07-08T00:36:13;23.70;63.10
5192;DHT22;2615;44.524;11.284;2023-07-08T00:38:42;23.70;63.10
5192;DHT22;2615;44.524;11.284;2023-07-08T00:41:16;23.70;63.10
5192;DHT22;2615;44.524;11.284;2023-07-08T00:43:49;23.70;63.20
5192;DHT22;2615;44.524;11.284;2023-07-08T00:46:29;23.70;63.20
5192;DHT22;2615;44.524;11.284;2023-07-08T00:49:03;23.70;63.30
5192;DHT22;2615;44.524;11.284;2023-07-08T00:51:33;23.70;63.20
5192;DHT22;2615;44.524;11.284;2023-07-08T00:54:02;23.60;63.20
5192;DHT22;2615;44.524;11.284;2023-07-08T00:56:34;23.60;63.30
5192;DHT22;2615;44.524;11.284;2023-07-08T00:59:07;23.60;63.30
5192;DHT22;2615;44.524;11.284;2023-07-08T01:01:39;23.50;63.30
5192;DHT22;2615;44.524;11.284;2023-07-08T01:04:11;23.50;63.40
5192;DHT22;2615;44.524;11.284;2023-07-08T01:06:43;23.50;63.50
5192;DHT22;2615;44.524;11.284;2023-07-08T01:09:13;23.50;63.60
5192;DHT22;2615;44.524;11.284;2023-07-08T01:11:43;23.40;63.60
5192;DHT22;2615;44.524;11.284;2023-07-08T01:14:15;23.40;63.80
5192;DHT22;2615;44.524;11.284;2023-07-08T01:16:45;23.40;63.90
5192;DHT22;2615;44.524;11.284;2023-07-08T01:19:17;23.40;64.00
5192;DHT22;2615;44.524;11.284;2023-07-08T01:21:58;23.40;64.00
5192;DHT22;2615;44.524;11.284;2023-07-08T01:24:27;23.40;64.00
5192;DHT22;2615;44.524;11.284;2023-07-08T01:26:56;23.40;64.00
5192;DHT22;2615;44.524;11.284;2023-07-08T01:29:24;23.40;64.00
5192;DHT22;2615;44.524;11.284;2023-07-08T01:31:54;23.40;64.00
5192;DHT22;2615;44.524;11.284;2023-07-08T01:34:23;23.40;64.00
5192;DHT22;2615;44.524;11.284;2023-07-08T01:36:54;23.40;64.00
5192;DHT22;2615;44.524;11.284;2023-07-08T01:39:25;23.30;64.00
5192;DHT22;2615;44.524;11.284;2023-07-08T01:41:53;23.30;64.00
5192;DHT22;2615;44.524;11.284;2023-07-08T01:44:26;23.30;64.00
5192;DHT22;2615;44.524;11.284;2023-07-08T01:46:55;23.30;64.80
5192;DHT22;2615;44.524;11.284;2023-07-08T01:49:25;23.30;64.10
5192;DHT22;2615;44.524;11.284;2023-07-08T01:51:55;23.20;64.10
5192;DHT22;2615;44.524;11.284;2023-07-08T01:54:24;23.20;64.10
5192;DHT22;2615;44.524;11.284;2023-07-08T01:56:55;23.20;64.10
5192;DHT22;2615;44.524;11.284;2023-07-08T01:59:24;23.20;64.30
5192;DHT22;2615;44.524;11.284;2023-07-08T02:01:53;23.20;64.40
5192;DHT22;2615;44.524;11.284;2023-07-08T02:04:22;23.20;64.20
5192;DHT22;2615;44.524;11.284;2023-07-08T02:06:54;23.20;64.20
5192;DHT22;2615;44.524;11.284;2023-07-08T02:09:23;23.20;64.20
5192;DHT22;2615;44.524;11.284;2023-07-08T02:11:52;23.10;64.10
5192;DHT22;2615;44.524;11.284;2023-07-08T02:14:20;23.20;64.20
5192;DHT22;2615;44.524;11.284;2023-07-08T02:16:48;23.20;64.20
5192;DHT22;2615;44.524;11.284;2023-07-08T02:19:17;23.20;64.20
5192;DHT22;2615;44.524;11.284;2023-07-08T02:21:46;23.20;64.20
5192;DHT22;2615;44.524;11.284;2023-07-08T02:24:15;23.20;64.20
5192;DHT22;2615;44.524;11.284;2023-07-08T02:26:44;23.20;64.10
5192;DHT22;2615;44.524;11.284;2023-07-08T02:29:14;23.10;63.90
5192;DHT22;2615;44.524;11.284;2023-07-08T02:31:42;23.10;64.00
5192;DHT22;2615;44.524;11.284;2023-07-08T02:34:10;23.10;64.00
5192;DHT22;2615;44.524;11.284;2023-07-08T02:36:38;23.00;64.00
5192;DHT22;2615;44.524;11.284;2023-07-08T02:39:06;23.00;64.00
5192;DHT22;2615;44.524;11.284;2023-07-08T02:41:36;23.00;64.10
5192;DHT22;2615;44.524;11.284;2023-07-08T02:44:04;23.00;64.20
5192;DHT22;2615;44.524;11.284;2023-07-08T02:46:33;23.00;64.20
5192;DHT22;2615;44.524;11.284;2023-07-08T02:49:01;22.90;64.10
5192;DHT22;2615;44.524;11.284;2023-07-08T02:51:29;22.90;64.20
5192;DHT22;2615;44.524;11.284;2023-07-08T02:53:57;22.90;64.30
5192;DHT22;2615;44.524;11.284;2023-07-08T02:56:25;22.90;64.40
5192;DHT22;2615;44.524;11.284;2023-07-08T02:58:55;22.90;64.50
5192;DHT22;2615;44.524;11.284;2023-07-08T03:01:23;22.90;64.50
5192;DHT22;2615;44.524;11.284;2023-07-08T03:03:53;22.90;64.60
5192;DHT22;2615;44.524;11.284;2023-07-08T03:06:23;22.90;64.50
5192;DHT22;2615;44.524;11.284;2023-07-08T03:08:52;22.90;64.50
5192;DHT22;2615;44.524;11.284;2023-07-08T03:11:20;22.90;64.50
5192;DHT22;2615;44.524;11.284;2023-07-08T03:13:48;22.90;64.60
5192;DHT22;2615;44.524;11.284;2023-07-08T03:16:18;22.90;64.60
5192;DHT22;2615;44.524;11.284;2023-07-08T03:18:46;22.90;64.90
5192;DHT22;2615;44.524;11.284;2023-07-08T03:21:16;22.90;64.80
5192;DHT22;2615;44.524;11.284;2023-07-08T03:23:45;22.90;64.70
5192;DHT22;2615;44.524;11.284;2023-07-08T03:26:14;22.90;64.60
5192;DHT22;2615;44.524;11.284;2023-07-08T03:28:43;22.80;64.40
5192;DHT22;2615;44.524;11.284;2023-07-08T03:31:12;22.80;64.30
5192;DHT22;2615;44.524;11.284;2023-07-08T03:33:41;22.70;64.20
5192;DHT22;2615;44.524;11.284;2023-07-08T03:36:12;22.80;64.40
5192;DHT22;2615;44.524;11.284;2023-07-08T03:38:50;22.70;64.20
5192;DHT22;2615;44.524;11.284;2023-07-08T03:41:18;22.70;64.30
5192;DHT22;2615;44.524;11.284;2023-07-08T03:43:47;22.70;64.30
5192;DHT22;2615;44.524;11.284;2023-07-08T03:46:18;22.70;64.40
5192;DHT22;2615;44.524;11.284;2023-07-08T03:48:49;22.70;64.30
5192;DHT22;2615;44.524;11.284;2023-07-08T03:51:21;22.60;64.30
5192;DHT22;2615;44.524;11.284;2023-07-08T03:53:50;22.60;64.40
5192;DHT22;2615;44.524;11.284;2023-07-08T03:56:19;22.60;64.40
5192;DHT22;2615;44.524;11.284;2023-07-08T03:58:47;22.50;64.50
5192;DHT22;2615;44.524;11.284;2023-07-08T04:01:16;22.50;64.50
5192;DHT22;2615;44.524;11.284;2023-07-08T04:03:45;22.50;64.70
5192;DHT22;2615;44.524;11.284;2023-07-08T04:06:15;22.50;64.70
5192;DHT22;2615;44.524;11.284;2023-07-08T04:08:43;22.50;64.70
5192;DHT22;2615;44.524;11.284;2023-07-08T04:11:12;22.50;64.70
5192;DHT22;2615;44.524;11.284;2023-07-08T04:13:40;22.50;65.40
5192;DHT22;2615;44.524;11.284;2023-07-08T04:16:16;22.50;64.70
5192;DHT22;2615;44.524;11.284;2023-07-08T04:18:46;22.60;64.90
5192;DHT22;2615;44.524;11.284;2023-07-08T04:21:19;22.60;64.90
5192;DHT22;2615;44.524;11.284;2023-07-08T04:23:49;22.60;65.00
5192;DHT22;2615;44.524;11.284;2023-07-08T04:26:17;22.60;65.00
5192;DHT22;2615;44.524;11.284;2023-07-08T04:28:46;22.70;65.20
5192;DHT22;2615;44.524;11.284;2023-07-08T04:31:14;22.70;65.20
5192;DHT22;2615;44.524;11.284;2023-07-08T04:33:43;22.70;65.20
5192;DHT22;2615;44.524;11.284;2023-07-08T04:36:13;22.80;65.30
5192;DHT22;2615;44.524;11.284;2023-07-08T04:38:43;22.80;65.30
5192;DHT22;2615;44.524;11.284;2023-07-08T04:41:13;22.90;65.40
5192;DHT22;2615;44.524;11.284;2023-07-08T04:43:42;22.90;65.30
5192;DHT22;2615;44.524;11.284;2023-07-08T04:46:18;22.90;65.20
5192;DHT22;2615;44.524;11.284;2023-07-08T04:48:47;23.00;65.20
5192;DHT22;2615;44.524;11.284;2023-07-08T04:51:15;23.00;65.10
5192;DHT22;2615;44.524;11.284;2023-07-08T04:53:47;23.00;65.00
5192;DHT22;2615;44.524;11.284;2023-07-08T04:56:15;23.00;65.00
5192;DHT22;2615;44.524;11.284;2023-07-08T04:58:43;23.00;64.90
5192;DHT22;2615;44.524;11.284;2023-07-08T05:01:12;23.10;64.90
5192;DHT22;2615;44.524;11.284;2023-07-08T05:03:40;23.10;64.80
5192;DHT22;2615;44.524;11.284;2023-07-08T05:06:08;23.20;64.90
5192;DHT22;2615;44.524;11.284;2023-07-08T05:08:36;23.30;64.80
5192;DHT22;2615;44.524;11.284;2023-07-08T05:11:06;23.30;64.70
5192;DHT22;2615;44.524;11.284;2023-07-08T05:13:34;23.30;64.60
5192;DHT22;2615;44.524;11.284;2023-07-08T05:16:03;23.40;64.60
5192;DHT22;2615;44.524;11.284;2023-07-08T05:18:31;23.40;64.60
5192;DHT22;2615;44.524;11.284;2023-07-08T05:20:59;23.50;64.50
5192;DHT22;2615;44.524;11.284;2023-07-08T05:23:28;23.60;64.40
5192;DHT22;2615;44.524;11.284;2023-07-08T05:26:00;23.60;64.40
5192;DHT22;2615;44.524;11.284;2023-07-08T05:28:30;23.70;64.30
5192;DHT22;2615;44.524;11.284;2023-07-08T05:30:58;23.70;64.20
5192;DHT22;2615;44.524;11.284;2023-07-08T05:33:28;23.80;64.10
5192;DHT22;2615;44.524;11.284;2023-07-08T05:35:58;23.90;64.10
5192;DHT22;2615;44.524;11.284;2023-07-08T05:38:26;23.90;64.00
5192;DHT22;2615;44.524;11.284;2023-07-08T05:40:57;24.00;64.00
5192;DHT22;2615;44.524;11.284;2023-07-08T05:43:26;24.10;63.90
5192;DHT22;2615;44.524;11.284;2023-07-08T05:45:59;24.20;63.70
5192;DHT22;2615;44.524;11.284;2023-07-08T05:48:38;24.30;63.60
5192;DHT22;2615;44.524;11.284;2023-07-08T05:51:06;24.40;63.50
5192;DHT22;2615;44.524;11.284;2023-07-08T05:53:34;24.50;63.40
5192;DHT22;2615;44.524;11.284;2023-07-08T05:56:03;24.60;63.10
5192;DHT22;2615;44.524;11.284;2023-07-08T05:58:31;24.70;63.20
5192;DHT22;2615;44.524;11.284;2023-07-08T06:01:01;24.90;63.20
5192;DHT22;2615;44.524;11.284;2023-07-08T06:03:30;24.90;63.00
5192;DHT22;2615;44.524;11.284;2023-07-08T06:05:58;25.10;62.90
5192;DHT22;2615;44.524;11.284;2023-07-08T06:08:28;25.20;62.40
5192;DHT22;2615;44.524;11.284;2023-07-08T06:10:56;25.20;62.20
5192;DHT22;2615;44.524;11.284;2023-07-08T06:13:24;25.20;62.00
5192;DHT22;2615;44.524;11.284;2023-07-08T06:15:52;25.20;61.90
5192;DHT22;2615;44.524;11.284;2023-07-08T06:18:22;25.30;62.10
5192;DHT22;2615;44.524;11.284;2023-07-08T06:20:52;25.30;62.00
5192;DHT22;2615;44.524;11.284;2023-07-08T06:23:20;25.40;62.10
5192;DHT22;2615;44.524;11.284;2023-07-08T06:25:48;25.40;62.00
5192;DHT22;2615;44.524;11.284;2023-07-08T06:28:17;25.40;61.90
5192;DHT22;2615;44.524;11.284;2023-07-08T06:30:45;25.40;61.70
5192;DHT22;2615;44.524;11.284;2023-07-08T06:33:13;25.50;61.90
5192;DHT22;2615;44.524;11.284;2023-07-08T06:35:43;25.50;61.80
5192;DHT22;2615;44.524;11.284;2023-07-08T06:38:12;25.50;61.70
5192;DHT22;2615;44.524;11.284;2023-07-08T06:40:41;25.50;61.70
5192;DHT22;2615;44.524;11.284;2023-07-08T06:43:09;25.50;61.70
5192;DHT22;2615;44.524;11.284;2023-07-08T06:45:37;25.50;61.70
5192;DHT22;2615;44.524;11.284;2023-07-08T06:48:05;25.70;61.90
5192;DHT22;2615;44.524;11.284;2023-07-08T06:50:34;25.80;61.80
5192;DHT22;2615;44.524;11.284;2023-07-08T06:53:03;25.90;61.70
5192;DHT22;2615;44.524;11.284;2023-07-08T06:55:31;26.00;61.60
5192;DHT22;2615;44.524;11.284;2023-07-08T06:57:59;26.10;61.30
5192;DHT22;2615;44.524;11.284;2023-07-08T07:00:28;26.10;60.90
5192;DHT22;2615;44.524;11.284;2023-07-08T07:02:56;26.20;60.80
5192;DHT22;2615;44.524;11.284;2023-07-08T07:05:24;26.30;60.60
5192;DHT22;2615;44.524;11.284;2023-07-08T07:07:52;26.50;60.40
5192;DHT22;2615;44.524;11.284;2023-07-08T07:10:22;26.60;60.00
5192;DHT22;2615;44.524;11.284;2023-07-08T07:12:50;26.60;59.70
5192;DHT22;2615;44.524;11.284;2023-07-08T07:15:19;26.70;59.60
5192;DHT22;2615;44.524;11.284;2023-07-08T07:17:47;26.80;59.40
5192;DHT22;2615;44.524;11.284;2023-07-08T07:20:15;26.90;59.30
5192;DHT22;2615;44.524;11.284;2023-07-08T07:22:43;27.00;59.30
5192;DHT22;2615;44.524;11.284;2023-07-08T07:25:11;27.00;59.30
5192;DHT22;2615;44.524;11.284;2023-07-08T07:27:41;27.10;59.30
5192;DHT22;2615;44.524;11.284;2023-07-08T07:30:10;27.20;59.20
5192;DHT22;2615;44.524;11.284;2023-07-08T07:32:42;27.30;58.80
5192;DHT22;2615;44.524;11.284;2023-07-08T07:35:11;27.40;58.60
5192;DHT22;2615;44.524;11.284;2023-07-08T07:37:42;27.50;58.30
5192;DHT22;2615;44.524;11.284;2023-07-08T07:40:11;27.60;57.90
5192;DHT22;2615;44.524;11.284;2023-07-08T07:42:46;27.70;57.50
5192;DHT22;2615;44.524;11.284;2023-07-08T07:45:14;27.80;57.20
5192;DHT22;2615;44.524;11.284;2023-07-08T07:47:43;27.90;57.00
5192;DHT22;2615;44.524;11.284;2023-07-08T07:50:11;27.90;56.70
5192;DHT22;2615;44.524;11.284;2023-07-08T07:52:39;28.00;56.40
5192;DHT22;2615;44.524;11.284;2023-07-08T07:55:08;28.10;56.30
5192;DHT22;2615;44.524;11.284;2023-07-08T07:57:36;28.20;56.10
5192;DHT22;2615;44.524;11.284;2023-07-08T08:00:07;28.30;55.80
5192;DHT22;2615;44.524;11.284;2023-07-08T08:02:35;28.40;55.50
5192;DHT22;2615;44.524;11.284;2023-07-08T08:05:04;28.40;55.20
5192;DHT22;2615;44.524;11.284;2023-07-08T08:07:32;28.50;55.10
5192;DHT22;2615;44.524;11.284;2023-07-08T08:10:00;28.60;54.90
5192;DHT22;2615;44.524;11.284;2023-07-08T08:12:28;28.70;54.80
5192;DHT22;2615;44.524;11.284;2023-07-08T08:15:18;28.80;54.60
5192;DHT22;2615;44.524;11.284;2023-07-08T08:17:46;29.00;55.00
5192;DHT22;2615;44.524;11.284;2023-07-08T08:20:16;29.10;54.30
5192;DHT22;2615;44.524;11.284;2023-07-08T08:22:45;29.20;54.10
5192;DHT22;2615;44.524;11.284;2023-07-08T08:25:14;29.20;53.80
5192;DHT22;2615;44.524;11.284;2023-07-08T08:27:42;29.20;53.30
5192;DHT22;2615;44.524;11.284;2023-07-08T08:30:11;29.10;53.10
5192;DHT22;2615;44.524;11.284;2023-07-08T08:32:41;29.00;53.00
5192;DHT22;2615;44.524;11.284;2023-07-08T08:35:09;29.10;53.10
5192;DHT22;2615;44.524;11.284;2023-07-08T08:37:37;29.20;53.00
5192;DHT22;2615;44.524;11.284;2023-07-08T08:40:08;29.20;52.80
5192;DHT22;2615;44.524;11.284;2023-07-08T08:42:42;29.30;52.40
5192;DHT22;2615;44.524;11.284;2023-07-08T08:45:16;29.40;52.10
5192;DHT22;2615;44.524;11.284;2023-07-08T08:47:50;29.50;52.00
5192;DHT22;2615;44.524;11.284;2023-07-08T08:50:30;29.60;51.80
5192;DHT22;2615;44.524;11.284;2023-07-08T08:53:02;29.70;51.60
5192;DHT22;2615;44.524;11.284;2023-07-08T08:55:31;29.70;51.50
5192;DHT22;2615;44.524;11.284;2023-07-08T08:58:08;29.80;51.20
5192;DHT22;2615;44.524;11.284;2023-07-08T09:00:47;29.90;51.20
5192;DHT22;2615;44.524;11.284;2023-07-08T09:03:33;30.10;50.50
5192;DHT22;2615;44.524;11.284;2023-07-08T09:06:10;30.30;50.30
5192;DHT22;2615;44.524;11.284;2023-07-08T09:08:39;30.40;50.00
5192;DHT22;2615;44.524;11.284;2023-07-08T09:11:17;30.50;50.00
5192;DHT22;2615;44.524;11.284;2023-07-08T09:13:47;30.60;49.50
5192;DHT22;2615;44.524;11.284;2023-07-08T09:16:25;30.70;49.10
5192;DHT22;2615;44.524;11.284;2023-07-08T09:19:00;30.70;48.80
5192;DHT22;2615;44.524;11.284;2023-07-08T09:21:37;30.70;48.60
5192;DHT22;2615;44.524;11.284;2023-07-08T09:24:13;30.80;48.40
5192;DHT22;2615;44.524;11.284;2023-07-08T09:26:44;30.80;48.20
5192;DHT22;2615;44.524;11.284;2023-07-08T09:29:13;30.90;48.00
5192;DHT22;2615;44.524;11.284;2023-07-08T09:31:41;31.10;47.90
5192;DHT22;2615;44.524;11.284;2023-07-08T09:34:14;31.10;47.70
5192;DHT22;2615;44.524;11.284;2023-07-08T09:36:44;31.30;47.20
5192;DHT22;2615;44.524;11.284;2023-07-08T09:39:13;31.40;46.90
5192;DHT22;2615;44.524;11.284;2023-07-08T09:41:44;31.60;46.50
5192;DHT22;2615;44.524;11.284;2023-07-08T09:44:21;31.70;46.10
5192;DHT22;2615;44.524;11.284;2023-07-08T09:46:53;31.80;45.90
5192;DHT22;2615;44.524;11.284;2023-07-08T09:49:26;31.90;45.80
5192;DHT22;2615;44.524;11.284;2023-07-08T09:51:55;32.00;45.40
5192;DHT22;2615;44.524;11.284;2023-07-08T09:54:24;32.10;45.30
5192;DHT22;2615;44.524;11.284;2023-07-08T09:56:58;32.20;44.90
5192;DHT22;2615;44.524;11.284;2023-07-08T09:59:30;32.20;44.30
5192;DHT22;2615;44.524;11.284;2023-07-08T10:02:01;32.30;44.20
5192;DHT22;2615;44.524;11.284;2023-07-08T10:04:31;32.30;44.50
5192;DHT22;2615;44.524;11.284;2023-07-08T10:07:00;32.40;43.70
5192;DHT22;2615;44.524;11.284;2023-07-08T10:09:28;32.30;43.80
5192;DHT22;2615;44.524;11.284;2023-07-08T10:12:01;32.40;43.80
5192;DHT22;2615;44.524;11.284;2023-07-08T10:14:34;32.40;43.20
5192;DHT22;2615;44.524;11.284;2023-07-08T10:17:05;32.60;43.10
5192;DHT22;2615;44.524;11.284;2023-07-08T10:19:34;32.80;42.90
5192;DHT22;2615;44.524;11.284;2023-07-08T10:22:21;32.90;42.50
5192;DHT22;2615;44.524;11.284;2023-07-08T10:25:02;33.00;42.30
5192;DHT22;2615;44.524;11.284;2023-07-08T10:27:36;33.10;42.20
5192;DHT22;2615;44.524;11.284;2023-07-08T10:30:19;33.20;42.10
5192;DHT22;2615;44.524;11.284;2023-07-08T10:33:32;33.40;41.60
5192;DHT22;2615;44.524;11.284;2023-07-08T10:36:18;33.40;41.00
5192;DHT22;2615;44.524;11.284;2023-07-08T10:38:55;33.50;41.20
5192;DHT22;2615;44.524;11.284;2023-07-08T10:41:34;33.60;41.30
5192;DHT22;2615;44.524;11.284;2023-07-08T10:44:11;33.80;41.10
5192;DHT22;2615;44.524;11.284;2023-07-08T10:46:46;33.90;40.80
5192;DHT22;2615;44.524;11.284;2023-07-08T10:49:39;34.00;40.40
5192;DHT22;2615;44.524;11.284;2023-07-08T10:52:28;34.10;39.80
5192;DHT22;2615;44.524;11.284;2023-07-08T10:55:09;34.30;39.70
5192;DHT22;2615;44.524;11.284;2023-07-08T10:57:54;34.30;39.60
5192;DHT22;2615;44.524;11.284;2023-07-08T11:00:27;34.30;39.30
5192;DHT22;2615;44.524;11.284;2023-07-08T11:06:11;34.50;38.90
5192;DHT22;2615;44.524;11.284;2023-07-08T11:08:45;34.60;39.00
5192;DHT22;2615;44.524;11.284;2023-07-08T11:11:25;34.80;38.60
5192;DHT22;2615;44.524;11.284;2023-07-08T11:14:01;34.90;38.50
5192;DHT22;2615;44.524;11.284;2023-07-08T11:16:36;35.00;38.30
5192;DHT22;2615;44.524;11.284;2023-07-08T11:19:11;35.10;38.20
5192;DHT22;2615;44.524;11.284;2023-07-08T11:21:45;35.20;38.00
5192;DHT22;2615;44.524;11.284;2023-07-08T11:24:21;35.40;37.80
5192;DHT22;2615;44.524;11.284;2023-07-08T11:26:55;35.50;37.50
5192;DHT22;2615;44.524;11.284;2023-07-08T11:29:29;35.60;37.20
5192;DHT22;2615;44.524;11.284;2023-07-08T11:32:00;35.70;37.00
5192;DHT22;2615;44.524;11.284;2023-07-08T11:34:30;35.80;36.80
5192;DHT22;2615;44.524;11.284;2023-07-08T11:37:00;35.90;36.80
5192;DHT22;2615;44.524;11.284;2023-07-08T11:39:38;35.90;36.40
5192;DHT22;2615;44.524;11.284;2023-07-08T11:42:21;36.00;36.30
5192;DHT22;2615;44.524;11.284;2023-07-08T11:44:51;36.00;36.20
5192;DHT22;2615;44.524;11.284;2023-07-08T11:47:34;36.10;36.40
5192;DHT22;2615;44.524;11.284;2023-07-08T11:50:15;36.20;36.20
5192;DHT22;2615;44.524;11.284;2023-07-08T11:52:51;36.20;35.90
5192;DHT22;2615;44.524;11.284;2023-07-08T11:55:25;36.20;35.50
5192;DHT22;2615;44.524;11.284;2023-07-08T11:57:59;36.30;35.50
5192;DHT22;2615;44.524;11.284;2023-07-08T12:00:31;36.40;35.70
5192;DHT22;2615;44.524;11.284;2023-07-08T12:03:12;36.50;35.80
5192;DHT22;2615;44.524;11.284;2023-07-08T12:05:45;36.50;35.70
5192;DHT22;2615;44.524;11.284;2023-07-08T12:08:15;36.50;35.60
5192;DHT22;2615;44.524;11.284;2023-07-08T12:10:50;36.60;35.40
5192;DHT22;2615;44.524;11.284;2023-07-08T12:13:21;36.60;35.00
5192;DHT22;2615;44.524;11.284;2023-07-08T12:15:51;36.60;34.90
5192;DHT22;2615;44.524;11.284;2023-07-08T12:18:22;36.70;35.00
5192;DHT22;2615;44.524;11.284;2023-07-08T12:20:55;36.70;35.00
5192;DHT22;2615;44.524;11.284;2023-07-08T12:23:24;36.70;34.90
5192;DHT22;2615;44.524;11.284;2023-07-08T12:25:55;36.70;34.90
5192;DHT22;2615;44.524;11.284;2023-07-08T12:28:25;36.70;34.90
5192;DHT22;2615;44.524;11.284;2023-07-08T12:30:53;36.70;34.80
5192;DHT22;2615;44.524;11.284;2023-07-08T12:33:28;36.70;34.70
5192;DHT22;2615;44.524;11.284;2023-07-08T12:35:57;36.60;34.60
5192;DHT22;2615;44.524;11.284;2023-07-08T12:38:29;36.60;34.80
5192;DHT22;2615;44.524;11.284;2023-07-08T12:41:02;36.50;34.80
5192;DHT22;2615;44.524;11.284;2023-07-08T12:43:33;36.40;35.00
5192;DHT22;2615;44.524;11.284;2023-07-08T12:46:02;36.10;35.20
5192;DHT22;2615;44.524;11.284;2023-07-08T12:48:31;35.90;35.40
5192;DHT22;2615;44.524;11.284;2023-07-08T12:51:02;35.70;35.50
5192;DHT22;2615;44.524;11.284;2023-07-08T12:53:31;35.50;35.50
5192;DHT22;2615;44.524;11.284;2023-07-08T12:56:03;35.20;35.50
5192;DHT22;2615;44.524;11.284;2023-07-08T12:58:34;35.00;35.80
5192;DHT22;2615;44.524;11.284;2023-07-08T13:01:05;34.90;36.10
5192;DHT22;2615;44.524;11.284;2023-07-08T13:03:42;34.70;36.10
5192;DHT22;2615;44.524;11.284;2023-07-08T13:06:12;34.50;36.30
5192;DHT22;2615;44.524;11.284;2023-07-08T13:08:43;34.40;37.00
5192;DHT22;2615;44.524;11.284;2023-07-08T13:11:14;34.30;36.50
5192;DHT22;2615;44.524;11.284;2023-07-08T13:13:48;34.20;36.60
5192;DHT22;2615;44.524;11.284;2023-07-08T13:16:17;34.10;36.80
5192;DHT22;2615;44.524;11.284;2023-07-08T13:18:46;34.00;36.80
5192;DHT22;2615;44.524;11.284;2023-07-08T13:21:15;33.90;37.10
5192;DHT22;2615;44.524;11.284;2023-07-08T13:23:44;33.80;37.20
5192;DHT22;2615;44.524;11.284;2023-07-08T13:26:16;33.80;37.50
5192;DHT22;2615;44.524;11.284;2023-07-08T13:28:45;33.70;38.30
5192;DHT22;2615;44.524;11.284;2023-07-08T13:31:16;33.60;38.00
5192;DHT22;2615;44.524;11.284;2023-07-08T13:33:52;33.60;38.10
5192;DHT22;2615;44.524;11.284;2023-07-08T13:36:22;33.60;38.20
5192;DHT22;2615;44.524;11.284;2023-07-08T13:38:51;33.50;38.20
5192;DHT22;2615;44.524;11.284;2023-07-08T13:41:22;33.50;38.20
5192;DHT22;2615;44.524;11.284;2023-07-08T13:43:50;33.50;38.10
5192;DHT22;2615;44.524;11.284;2023-07-08T13:46:28;33.40;37.90
5192;DHT22;2615;44.524;11.284;2023-07-08T13:49:00;33.30;38.00
5192;DHT22;2615;44.524;11.284;2023-07-08T13:51:32;33.20;38.20
5192;DHT22;2615;44.524;11.284;2023-07-08T13:54:07;33.20;38.40
5192;DHT22;2615;44.524;11.284;2023-07-08T13:56:41;33.20;38.30
5192;DHT22;2615;44.524;11.284;2023-07-08T13:59:11;33.10;38.10
5192;DHT22;2615;44.524;11.284;2023-07-08T14:01:42;33.10;38.20
5192;DHT22;2615;44.524;11.284;2023-07-08T14:04:12;33.10;38.00
5192;DHT22;2615;44.524;11.284;2023-07-08T14:06:40;33.00;37.70
5192;DHT22;2615;44.524;11.284;2023-07-08T14:09:12;33.00;37.80
5192;DHT22;2615;44.524;11.284;2023-07-08T14:11:43;33.00;38.20
5192;DHT22;2615;44.524;11.284;2023-07-08T14:14:11;33.00;38.30
5192;DHT22;2615;44.524;11.284;2023-07-08T14:16:41;32.90;38.40
5192;DHT22;2615;44.524;11.284;2023-07-08T14:19:14;32.90;38.60
5192;DHT22;2615;44.524;11.284;2023-07-08T14:21:45;32.80;38.60
5192;DHT22;2615;44.524;11.284;2023-07-08T14:24:14;32.80;38.50
5192;DHT22;2615;44.524;11.284;2023-07-08T14:26:45;32.80;38.60
5192;DHT22;2615;44.524;11.284;2023-07-08T14:29:13;32.70;38.80
5192;DHT22;2615;44.524;11.284;2023-07-08T14:31:41;32.70;38.80
5192;DHT22;2615;44.524;11.284;2023-07-08T14:34:13;32.70;38.80
5192;DHT22;2615;44.524;11.284;2023-07-08T14:36:43;32.70;38.80
5192;DHT22;2615;44.524;11.284;2023-07-08T14:39:13;32.60;38.70
5192;DHT22;2615;44.524;11.284;2023-07-08T14:41:43;32.60;38.70
5192;DHT22;2615;44.524;11.284;2023-07-08T14:44:21;32.60;38.90
5192;DHT22;2615;44.524;11.284;2023-07-08T14:46:49;32.60;39.00
5192;DHT22;2615;44.524;11.284;2023-07-08T14:49:19;32.50;38.90
5192;DHT22;2615;44.524;11.284;2023-07-08T14:51:48;32.50;39.60
5192;DHT22;2615;44.524;11.284;2023-07-08T14:54:17;32.50;39.20
5192;DHT22;2615;44.524;11.284;2023-07-08T14:56:48;32.50;39.30
5192;DHT22;2615;44.524;11.284;2023-07-08T14:59:18;32.50;39.20
5192;DHT22;2615;44.524;11.284;2023-07-08T15:01:46;32.50;39.00
5192;DHT22;2615;44.524;11.284;2023-07-08T15:04:16;32.50;39.00
5192;DHT22;2615;44.524;11.284;2023-07-08T15:06:45;32.50;38.90
5192;DHT22;2615;44.524;11.284;2023-07-08T15:09:14;32.40;38.70
5192;DHT22;2615;44.524;11.284;2023-07-08T15:11:44;32.40;38.70
5192;DHT22;2615;44.524;11.284;2023-07-08T15:14:18;32.40;38.70
5192;DHT22;2615;44.524;11.284;2023-07-08T15:16:47;32.40;38.70
5192;DHT22;2615;44.524;11.284;2023-07-08T15:19:15;32.40;38.80
5192;DHT22;2615;44.524;11.284;2023-07-08T15:21:43;32.30;38.70
5192;DHT22;2615;44.524;11.284;2023-07-08T15:24:13;32.30;38.50
5192;DHT22;2615;44.524;11.284;2023-07-08T15:26:44;32.30;38.80
5192;DHT22;2615;44.524;11.284;2023-07-08T15:29:16;32.30;39.00
5192;DHT22;2615;44.524;11.284;2023-07-08T15:31:45;32.30;39.10
5192;DHT22;2615;44.524;11.284;2023-07-08T15:34:16;32.30;39.10
5192;DHT22;2615;44.524;11.284;2023-07-08T15:36:44;32.30;39.20
5192;DHT22;2615;44.524;11.284;2023-07-08T15:39:13;32.30;39.20
5192;DHT22;2615;44.524;11.284;2023-07-08T15:41:42;32.30;39.20
5192;DHT22;2615;44.524;11.284;2023-07-08T15:44:12;32.30;39.20
5192;DHT22;2615;44.524;11.284;2023-07-08T15:46:44;32.20;39.00
5192;DHT22;2615;44.524;11.284;2023-07-08T15:49:14;32.20;39.00
5192;DHT22;2615;44.524;11.284;2023-07-08T15:51:43;32.20;38.90
5192;DHT22;2615;44.524;11.284;2023-07-08T15:54:16;32.20;38.90
5192;DHT22;2615;44.524;11.284;2023-07-08T15:56:45;32.20;38.90
5192;DHT22;2615;44.524;11.284;2023-07-08T15:59:16;32.20;38.90
5192;DHT22;2615;44.524;11.284;2023-07-08T16:01:47;32.20;38.90
5192;DHT22;2615;44.524;11.284;2023-07-08T16:04:22;32.20;39.10
5192;DHT22;2615;44.524;11.284;2023-07-08T16:06:51;32.20;39.20
5192;DHT22;2615;44.524;11.284;2023-07-08T16:09:19;32.10;39.10
5192;DHT22;2615;44.524;11.284;2023-07-08T16:11:48;32.10;39.10